Time;durP1;ratioP1;P1;durP2;ratioP2;P2;SDS_P1;SDS_P2;PMS_P1;PMS_P2;Temp;Humidity;BMP_temperature;BMP_pressure;BME280_temperature;BME280_humidity;BME280_pressure;Samples;Min_cycle;Max_cycle;Signal;HPM_P1;HPM_P2
2022/03/02 00:00:22;;;;;;;18.75;9.05;;;2.20;99.90;;;;;;5014245;28;20076;-51
2022/03/02 00:02:48;;;;;;;19.88;9.55;;;2.20;99.90;;;;;;5014749;28;20117;-50
2022/03/02 00:05:13;;;;;;;22.25;9.32;;;2.00;99.90;;;;;;5015245;28;20103;-51
2022/03/02 00:07:39;;;;;;;20.92;9.23;;;1.90;99.90;;;;;;5014100;28;20128;-51
2022/03/02 00:10:05;;;;;;;19.73;9.60;;;1.90;99.90;;;;;;5015610;28;20089;-49
2022/03/02 00:12:32;;;;;;;25.05;9.70;;;1.90;99.90;;;;;;5014798;28;20026;-49
2022/03/02 00:14:58;;;;;;;21.70;9.48;;;1.90;99.90;;;;;;5015244;28;20058;-49
2022/03/02 00:17:24;;;;;;;16.83;8.93;;;1.80;99.90;;;;;;5015156;28;20026;-49
2022/03/02 00:19:49;;;;;;;19.50;9.23;;;1.80;99.90;;;;;;5013849;28;20030;-49
2022/03/02 00:22:15;;;;;;;22.35;9.73;;;1.80;99.90;;;;;;5013768;28;20053;-49
2022/03/02 00:24:41;;;;;;;19.38;9.80;;;1.80;99.90;;;;;;5015299;28;20030;-49
2022/03/02 00:27:06;;;;;;;21.33;8.45;;;1.90;99.90;;;;;;5015218;28;20083;-54
2022/03/02 00:29:32;;;;;;;19.63;8.63;;;1.80;99.90;;;;;;5013723;28;20079;-49
2022/03/02 00:31:58;;;;;;;18.95;9.23;;;1.80;99.90;;;;;;5014920;28;20112;-51
2022/03/02 00:34:23;;;;;;;21.20;9.05;;;1.60;99.90;;;;;;5013623;28;20022;-51
2022/03/02 00:36:49;;;;;;;21.20;8.45;;;1.60;99.90;;;;;;5014675;28;20026;-49
2022/03/02 00:39:15;;;;;;;22.38;8.50;;;1.60;99.90;;;;;;5014496;28;20446;-49
2022/03/02 00:41:41;;;;;;;19.42;9.02;;;1.60;99.90;;;;;;5014394;28;20117;-50
2022/03/02 00:44:07;;;;;;;18.67;8.10;;;1.50;99.90;;;;;;5013475;28;20029;-53
2022/03/02 00:46:33;;;;;;;21.58;9.05;;;1.50;99.90;;;;;;5013401;28;20018;-53
2022/03/02 00:49:02;;;;;;;19.45;9.10;;;1.40;99.90;;;;;;5014348;28;20026;-48
2022/03/02 00:51:28;;;;;;;18.25;9.43;;;1.40;99.90;;;;;;5014561;28;20050;-53
2022/03/02 00:53:54;;;;;;;20.85;9.15;;;1.30;99.90;;;;;;5013244;28;20025;-51
2022/03/02 00:57:05;;;;;;;19.17;9.13;;;1.20;99.90;;;;;;5013362;28;20048;-54
2022/03/02 00:59:31;;;;;;;24.23;9.00;;;1.20;99.90;;;;;;5014753;28;20018;-49
2022/03/02 01:01:57;;;;;;;20.00;9.60;;;1.20;99.90;;;;;;5014620;28;20149;-49
2022/03/02 01:04:22;;;;;;;20.73;9.05;;;1.30;99.90;;;;;;5013640;28;20108;-49
2022/03/02 01:06:48;;;;;;;19.98;8.77;;;1.40;99.90;;;;;;5012942;28;20127;-50
2022/03/02 01:09:14;;;;;;;28.25;9.82;;;1.40;99.90;;;;;;5013896;28;20022;-52
2022/03/02 01:11:40;;;;;;;24.65;8.85;;;1.40;99.90;;;;;;5013373;28;20121;-53
2022/03/02 01:14:05;;;;;;;20.15;9.20;;;1.30;99.90;;;;;;5013281;28;20053;-53
2022/03/02 01:16:32;;;;;;;20.20;9.30;;;1.40;99.90;;;;;;5013238;28;20030;-56
2022/03/02 01:18:58;;;;;;;20.02;8.15;;;1.50;99.90;;;;;;5012795;28;20029;-50
2022/03/02 01:21:23;;;;;;;19.55;9.07;;;1.50;99.90;;;;;;5012853;28;20022;-54
2022/03/02 01:23:49;;;;;;;17.23;8.57;;;1.50;99.90;;;;;;5012779;28;20076;-51
2022/03/02 01:26:14;;;;;;;15.07;8.23;;;1.40;99.90;;;;;;5012584;28;20030;-53
2022/03/02 01:28:40;;;;;;;20.10;7.85;;;1.40;99.90;;;;;;5012719;28;20018;-49
2022/03/02 01:31:06;;;;;;;14.63;7.90;;;1.40;99.90;;;;;;5013938;28;20046;-55
2022/03/02 01:33:32;;;;;;;20.50;9.52;;;1.40;99.90;;;;;;5012712;28;20057;-50
2022/03/02 01:35:57;;;;;;;17.52;8.85;;;1.40;99.90;;;;;;5012505;28;20028;-53
2022/03/02 01:38:23;;;;;;;20.23;9.05;;;1.40;99.90;;;;;;5012876;28;20121;-54
2022/03/02 01:40:48;;;;;;;19.65;8.48;;;1.40;99.90;;;;;;5013791;28;20018;-51
2022/03/02 01:43:14;;;;;;;17.50;8.23;;;1.40;99.90;;;;;;5013809;28;20030;-52
2022/03/02 01:45:40;;;;;;;24.40;9.43;;;1.30;99.90;;;;;;5012438;28;20033;-51
2022/03/02 01:48:06;;;;;;;17.50;7.70;;;1.30;99.90;;;;;;5013018;28;20108;-52
2022/03/02 01:50:33;;;;;;;26.67;9.00;;;1.20;99.90;;;;;;5011794;28;20022;-52
2022/03/02 01:52:59;;;;;;;27.25;9.40;;;1.30;99.90;;;;;;5012517;28;20034;-53
2022/03/02 01:55:25;;;;;;;26.08;9.48;;;1.30;99.90;;;;;;5012809;28;20042;-49
2022/03/02 01:57:51;;;;;;;20.02;8.95;;;1.30;99.90;;;;;;5013549;28;20077;-53
2022/03/02 02:00:20;;;;;;;18.27;8.65;;;1.20;99.90;;;;;;5013546;28;20435;-52
2022/03/02 02:02:47;;;;;;;17.73;8.57;;;1.20;99.90;;;;;;5012279;28;20441;-49
2022/03/02 02:05:13;;;;;;;14.85;7.93;;;1.30;99.90;;;;;;5013477;28;20073;-51
2022/03/02 02:07:39;;;;;;;17.85;8.50;;;1.30;99.90;;;;;;5012269;28;20037;-50
2022/03/02 02:10:08;;;;;;;19.23;9.13;;;1.40;99.90;;;;;;5013715;28;20029;-54
2022/03/02 02:12:34;;;;;;;18.25;7.40;;;1.40;99.90;;;;;;5012140;28;20021;-51
2022/03/02 02:15:00;;;;;;;15.07;8.07;;;1.40;99.90;;;;;;5012336;28;20022;-52
2022/03/02 02:17:26;;;;;;;17.42;8.35;;;1.30;99.90;;;;;;5012045;28;20030;-50
2022/03/02 02:19:52;;;;;;;20.83;8.02;;;1.40;99.90;;;;;;5012701;28;20038;-49
2022/03/02 02:22:19;;;;;;;18.48;8.05;;;1.30;99.90;;;;;;5012369;28;20026;-52
2022/03/02 02:24:45;;;;;;;15.00;7.40;;;1.40;99.90;;;;;;5013438;28;20021;-50
2022/03/02 02:27:12;;;;;;;20.13;8.48;;;1.50;99.90;;;;;;5013688;28;20030;-50
2022/03/02 02:29:39;;;;;;;19.50;8.82;;;1.40;99.90;;;;;;5013391;28;20030;-52
2022/03/02 02:32:05;;;;;;;19.70;8.02;;;1.40;99.90;;;;;;5013239;28;20029;-53
2022/03/02 02:34:31;;;;;;;18.65;8.57;;;1.50;99.90;;;;;;5013721;28;20058;-54
2022/03/02 02:36:58;;;;;;;19.02;8.75;;;1.40;99.90;;;;;;5012017;28;20125;-52
2022/03/02 02:39:25;;;;;;;17.98;7.70;;;1.40;99.90;;;;;;5012045;28;20548;-51
2022/03/02 02:41:50;;;;;;;13.90;7.75;;;1.40;99.90;;;;;;5013169;28;20022;-51
2022/03/02 02:44:16;;;;;;;19.38;8.63;;;1.60;99.90;;;;;;5012011;28;20029;-51
2022/03/02 02:46:43;;;;;;;15.40;8.32;;;1.80;99.90;;;;;;5013081;28;20030;-51
2022/03/02 02:49:09;;;;;;;21.73;9.43;;;1.90;99.90;;;;;;5013099;28;20136;-51
2022/03/02 02:51:35;;;;;;;18.30;8.30;;;1.90;99.90;;;;;;5012443;28;20109;-54
2022/03/02 02:54:01;;;;;;;16.85;8.60;;;1.90;99.90;;;;;;5012155;28;20022;-52
2022/03/02 02:56:27;;;;;;;19.75;8.52;;;1.80;99.90;;;;;;5011948;28;20026;-53
2022/03/02 02:58:53;;;;;;;18.35;8.40;;;1.90;99.90;;;;;;5011908;28;20018;-53
2022/03/02 03:01:19;;;;;;;18.60;8.55;;;1.90;99.90;;;;;;5013840;28;20097;-49
2022/03/02 03:03:47;;;;;;;16.60;7.18;;;2.00;99.90;;;;;;5015266;28;20113;-55
2022/03/02 03:06:12;;;;;;;19.92;8.63;;;2.00;99.90;;;;;;5015186;28;20049;-53
2022/03/02 03:08:38;;;;;;;15.15;8.05;;;2.00;99.90;;;;;;5015311;28;20546;-52
2022/03/02 03:11:04;;;;;;;18.40;9.15;;;1.90;99.90;;;;;;5016380;28;20104;-52
2022/03/02 03:13:29;;;;;;;18.60;8.93;;;2.00;99.90;;;;;;5016402;28;20538;-49
2022/03/02 03:15:55;;;;;;;18.98;7.75;;;2.00;99.90;;;;;;5015112;28;20037;-49
2022/03/02 03:18:21;;;;;;;19.73;8.10;;;2.00;99.90;;;;;;5016245;28;20183;-53
2022/03/02 03:20:47;;;;;;;18.75;8.40;;;1.90;99.90;;;;;;5014989;28;20022;-49
2022/03/02 03:23:12;;;;;;;13.75;7.75;;;2.00;99.90;;;;;;5014989;28;20026;-55
2022/03/02 03:25:38;;;;;;;17.00;7.28;;;2.00;99.90;;;;;;5014804;28;20057;-51
2022/03/02 03:28:05;;;;;;;16.23;8.15;;;1.90;99.90;;;;;;5014856;28;20081;-48
2022/03/02 03:30:31;;;;;;;17.75;7.53;;;2.00;99.90;;;;;;5016017;28;20029;-50
2022/03/02 03:32:57;;;;;;;19.65;8.63;;;2.00;99.90;;;;;;5016059;28;20026;-51
2022/03/02 03:35:25;;;;;;;18.40;8.68;;;2.00;99.90;;;;;;5015924;28;20022;-50
2022/03/02 03:37:51;;;;;;;18.90;8.40;;;2.00;99.90;;;;;;5016189;28;20045;-52
2022/03/02 03:40:19;;;;;;;18.63;8.85;;;2.00;99.90;;;;;;5015977;28;20037;-52
2022/03/02 03:42:45;;;;;;;19.83;8.57;;;1.90;99.90;;;;;;5015522;28;20022;-50
2022/03/02 03:45:11;;;;;;;20.05;8.73;;;1.90;99.90;;;;;;5014681;28;20029;-48
2022/03/02 03:47:37;;;;;;;14.05;7.85;;;2.00;99.90;;;;;;5015361;28;20026;-52
2022/03/02 03:50:04;;;;;;;17.85;8.73;;;2.10;99.90;;;;;;5014895;28;20026;-49
2022/03/02 03:52:29;;;;;;;22.10;9.48;;;2.10;99.90;;;;;;5014745;28;20030;-49
2022/03/02 03:54:55;;;;;;;18.65;8.52;;;2.10;99.90;;;;;;5015608;28;20037;-49
2022/03/02 03:57:21;;;;;;;21.50;8.88;;;2.20;99.90;;;;;;5015111;28;20116;-49
2022/03/02 03:59:46;;;;;;;20.80;9.18;;;2.30;99.90;;;;;;5015198;28;20461;-48
2022/03/02 04:02:12;;;;;;;22.52;8.88;;;2.30;99.90;;;;;;5014232;28;20022;-50
2022/03/02 04:04:37;;;;;;;16.08;8.45;;;2.30;99.90;;;;;;5014236;28;20025;-48
2022/03/02 04:07:03;;;;;;;22.30;9.43;;;2.30;99.90;;;;;;5015402;28;20400;-51
2022/03/02 04:09:29;;;;;;;18.90;9.40;;;2.40;99.90;;;;;;5015493;28;20022;-49
2022/03/02 04:11:55;;;;;;;18.20;8.48;;;2.40;99.90;;;;;;5015597;28;20053;-50
2022/03/02 04:14:20;;;;;;;18.52;8.30;;;2.30;99.90;;;;;;5013372;28;20022;-49
2022/03/02 04:16:46;;;;;;;18.42;8.07;;;2.20;99.90;;;;;;5014149;28;20029;-49
2022/03/02 04:19:11;;;;;;;17.00;7.93;;;2.40;99.90;;;;;;5015199;28;20105;-53
2022/03/02 04:21:37;;;;;;;19.83;7.75;;;2.40;99.90;;;;;;5015396;28;20495;-50
2022/03/02 04:24:03;;;;;;;20.02;8.30;;;2.40;99.90;;;;;;5015405;28;20065;-48
2022/03/02 04:26:28;;;;;;;26.65;8.63;;;2.40;99.90;;;;;;5013769;28;20026;-50
2022/03/02 04:28:54;;;;;;;25.10;8.98;;;2.30;99.90;;;;;;5014946;28;20029;-53
2022/03/02 04:31:20;;;;;;;18.10;7.72;;;2.30;99.90;;;;;;5013691;28;20048;-51
2022/03/02 04:33:46;;;;;;;15.05;7.95;;;2.40;99.90;;;;;;5014873;28;20045;-51
2022/03/02 04:36:13;;;;;;;23.15;8.55;;;2.40;99.90;;;;;;5013750;28;20042;-51
2022/03/02 04:38:38;;;;;;;18.42;8.45;;;2.40;99.90;;;;;;5013809;28;20080;-51
2022/03/02 04:41:04;;;;;;;16.52;7.20;;;2.40;99.90;;;;;;5014846;28;20106;-52
2022/03/02 04:43:29;;;;;;;18.27;8.23;;;2.40;99.90;;;;;;5014676;28;20018;-50
2022/03/02 04:45:55;;;;;;;16.60;7.90;;;2.40;99.90;;;;;;5013393;28;20057;-51
2022/03/02 04:48:21;;;;;;;15.75;8.25;;;2.30;99.90;;;;;;5013376;28;20057;-52
2022/03/02 04:50:47;;;;;;;22.60;9.68;;;2.30;99.90;;;;;;5014491;28;20022;-49
2022/03/02 04:53:16;;;;;;;18.35;8.77;;;2.20;99.90;;;;;;5014584;28;20022;-49
2022/03/02 04:55:43;;;;;;;17.83;8.00;;;2.30;99.90;;;;;;5013274;28;20029;-55
2022/03/02 04:58:08;;;;;;;20.88;8.15;;;2.40;99.90;;;;;;5014634;28;20025;-53
2022/03/02 05:00:35;;;;;;;28.88;12.13;;;2.40;99.90;;;;;;5013131;28;20022;-51
2022/03/02 05:03:03;;;;;;;21.85;9.13;;;2.50;99.90;;;;;;5014709;28;20018;-50
2022/03/02 05:05:31;;;;;;;19.42;8.98;;;2.60;99.90;;;;;;5013494;28;20076;-55
2022/03/02 05:07:58;;;;;;;16.55;7.47;;;2.50;99.90;;;;;;5014542;28;20168;-50
2022/03/02 05:10:23;;;;;;;15.48;7.70;;;2.50;99.90;;;;;;5014265;28;20022;-52
2022/03/02 05:12:49;;;;;;;18.20;8.00;;;2.60;99.90;;;;;;5013354;28;20500;-49
2022/03/02 05:15:16;;;;;;;19.90;9.40;;;2.70;99.90;;;;;;5012853;28;20030;-49
2022/03/02 05:17:44;;;;;;;18.67;7.47;;;2.70;99.90;;;;;;5014378;28;20034;-50
2022/03/02 05:20:11;;;;;;;16.60;7.53;;;2.80;99.90;;;;;;5014398;28;20028;-52
2022/03/02 05:22:37;;;;;;;17.75;8.05;;;2.80;99.90;;;;;;5012806;28;20112;-54
2022/03/02 05:25:04;;;;;;;19.20;8.68;;;2.80;99.90;;;;;;5012562;28;20114;-49
2022/03/02 05:27:30;;;;;;;18.40;7.80;;;2.70;99.90;;;;;;5014013;28;20032;-49
2022/03/02 05:29:56;;;;;;;15.50;6.97;;;2.50;99.90;;;;;;5012701;28;20026;-54
2022/03/02 05:32:22;;;;;;;18.33;8.57;;;2.60;99.90;;;;;;5013927;28;20026;-52
2022/03/02 05:34:47;;;;;;;16.35;7.53;;;2.60;99.90;;;;;;5014146;28;20026;-55
2022/03/02 05:37:13;;;;;;;21.75;8.30;;;2.40;99.90;;;;;;5012460;28;20026;-55
2022/03/02 05:39:39;;;;;;;19.33;8.13;;;2.50;99.90;;;;;;5013150;28;20018;-51
2022/03/02 05:42:05;;;;;;;22.00;8.13;;;2.50;99.90;;;;;;5012949;28;20037;-51
2022/03/02 05:44:30;;;;;;;17.63;7.45;;;2.60;99.90;;;;;;5012573;28;20029;-51
2022/03/02 05:46:56;;;;;;;16.45;7.53;;;2.70;99.90;;;;;;5012504;28;20026;-49
2022/03/02 05:49:21;;;;;;;28.92;11.95;;;2.70;99.90;;;;;;5012828;28;20034;-51
2022/03/02 05:51:47;;;;;;;22.63;9.90;;;2.70;99.90;;;;;;5013645;28;20026;-50
2022/03/02 05:54:13;;;;;;;23.80;9.40;;;2.70;99.90;;;;;;5012370;28;20022;-53
2022/03/02 05:56:40;;;;;;;16.67;8.25;;;2.70;99.90;;;;;;5013026;28;20124;-49
2022/03/02 05:59:07;;;;;;;16.33;8.15;;;2.70;99.90;;;;;;5013636;28;20393;-49
2022/03/02 06:01:33;;;;;;;20.10;8.38;;;2.70;99.90;;;;;;5012348;28;20092;-53
2022/03/02 06:03:59;;;;;;;26.67;10.95;;;2.80;99.90;;;;;;5013602;28;20472;-49
2022/03/02 06:06:24;;;;;;;16.00;7.68;;;2.90;99.90;;;;;;5012307;28;20029;-49
2022/03/02 06:08:50;;;;;;;19.58;8.18;;;2.80;99.90;;;;;;5013480;28;20030;-49
2022/03/02 06:11:17;;;;;;;19.00;7.72;;;2.90;99.90;;;;;;5012543;28;20046;-54
2022/03/02 06:13:42;;;;;;;16.42;7.45;;;3.00;99.90;;;;;;5013459;28;20034;-48
2022/03/02 06:16:08;;;;;;;16.15;7.38;;;3.10;99.90;;;;;;5013445;28;20390;-51
2022/03/02 06:18:34;;;;;;;15.90;6.95;;;3.10;99.90;;;;;;5012510;28;20022;-48
2022/03/02 06:21:01;;;;;;;20.08;9.05;;;3.00;99.90;;;;;;5013396;28;20033;-52
2022/03/02 06:23:31;;;;;;;17.50;7.18;;;3.00;99.90;;;;;;5013405;28;20029;-51
2022/03/02 06:25:57;;;;;;;17.65;7.57;;;3.20;99.90;;;;;;5012040;28;20034;-48
2022/03/02 06:28:24;;;;;;;15.05;8.15;;;3.20;99.90;;;;;;5012198;28;20176;-51
2022/03/02 06:30:50;;;;;;;18.92;8.15;;;3.00;99.90;;;;;;5013272;28;20022;-51
2022/03/02 06:33:18;;;;;;;15.32;7.63;;;2.90;99.90;;;;;;5013246;28;20037;-50
2022/03/02 06:35:50;;;;;;;15.60;7.95;;;2.90;99.90;;;;;;5013390;28;20037;-50
2022/03/02 06:38:16;;;;;;;;;;;2.90;99.90;;;;;;5017421;28;20026;-47
2022/03/02 06:41:14;;;;;;;18.17;8.15;;;2.80;99.90;;;;;;5015793;28;19912;-47
2022/03/02 06:43:49;;;;;;;18.60;8.00;;;2.80;99.90;;;;;;5015827;28;20018;-47
2022/03/02 06:46:52;;;;;;;20.17;9.45;;;2.80;99.90;;;;;;5016960;28;20025;-48
2022/03/02 06:49:44;;;;;;;15.55;8.20;;;3.00;99.90;;;;;;4992026;28;20045;-48
2022/03/02 06:52:11;;;;;;;19.90;8.73;;;3.10;99.90;;;;;;5015668;28;20030;-47
2022/03/02 06:54:43;;;;;;;14.75;8.18;;;3.10;99.90;;;;;;5015415;28;20026;-52
2022/03/02 06:57:14;;;;;;;19.58;9.32;;;3.20;99.90;;;;;;5015526;28;20033;-49
2022/03/02 06:59:42;;;;;;;17.25;7.88;;;3.20;99.90;;;;;;5015809;28;20545;-47
2022/03/02 07:02:09;;;;;;;18.60;8.32;;;3.30;99.90;;;;;;5016074;28;20026;-47
2022/03/02 07:04:40;;;;;;;18.77;8.65;;;3.30;99.90;;;;;;5015432;28;20029;-52
2022/03/02 07:07:06;;;;;;;18.07;7.90;;;3.30;99.90;;;;;;5015420;28;20029;-48
2022/03/02 07:09:33;;;;;;;16.48;7.65;;;3.30;99.90;;;;;;5015228;28;20280;-50
2022/03/02 07:12:00;;;;;;;21.60;9.48;;;3.40;99.90;;;;;;5015290;28;20026;-49
2022/03/02 07:14:32;;;;;;;26.15;8.82;;;3.50;99.90;;;;;;5016401;28;20104;-50
2022/03/02 07:16:59;;;;;;;25.70;9.80;;;3.60;99.90;;;;;;5015135;28;20097;-49
2022/03/02 07:19:28;;;;;;;20.40;8.02;;;3.70;99.90;;;;;;5015023;28;20377;-48
2022/03/02 07:22:00;;;;;;;21.50;10.02;;;3.70;99.90;;;;;;5016318;28;20048;-50
2022/03/02 07:24:30;;;;;;;21.70;8.25;;;3.70;99.90;;;;;;5015528;28;20026;-50
2022/03/02 07:26:58;;;;;;;21.23;10.02;;;3.80;99.90;;;;;;5016098;28;20346;-50
2022/03/02 07:29:28;;;;;;;16.73;9.68;;;3.90;99.90;;;;;;5016110;28;20469;-50
2022/03/02 07:31:57;;;;;;;18.05;8.60;;;3.90;99.90;;;;;;5016126;28;20101;-54
2022/03/02 07:34:25;;;;;;;19.95;8.75;;;4.10;99.90;;;;;;5014743;28;20092;-51
2022/03/02 07:36:51;;;;;;;18.85;9.27;;;4.10;99.90;;;;;;5014812;28;20069;-48
2022/03/02 07:39:16;;;;;;;23.95;8.90;;;4.20;99.90;;;;;;5016842;28;20057;-48
2022/03/02 07:41:42;;;;;;;16.33;7.90;;;4.30;99.90;;;;;;5015936;28;20038;-48
2022/03/02 07:44:08;;;;;;;19.77;7.88;;;4.30;99.90;;;;;;5014624;28;20022;-48
2022/03/02 07:46:35;;;;;;;20.13;9.13;;;4.40;99.90;;;;;;5014546;28;20026;-49
2022/03/02 07:49:01;;;;;;;17.63;8.18;;;4.60;99.90;;;;;;5014053;28;20033;-48
2022/03/02 07:51:27;;;;;;;23.83;8.98;;;4.90;99.90;;;;;;5015399;28;20049;-48
2022/03/02 07:53:59;;;;;;;18.48;9.50;;;4.80;99.90;;;;;;5015032;28;20057;-47
2022/03/02 07:56:28;;;;;;;18.92;8.93;;;5.00;99.90;;;;;;5015606;28;20030;-49
2022/03/02 07:59:04;;;;;;;21.52;9.43;;;5.40;99.90;;;;;;5014269;28;20034;-48
2022/03/02 08:01:34;;;;;;;17.95;7.85;;;5.70;99.90;;;;;;5015578;28;20030;-48
2022/03/02 08:04:04;;;;;;;17.13;7.60;;;6.10;99.90;;;;;;5014292;28;20396;-49
2022/03/02 08:06:31;;;;;;;17.65;8.02;;;6.50;99.90;;;;;;5015512;28;20022;-50
2022/03/02 08:08:57;;;;;;;20.33;9.02;;;6.90;99.90;;;;;;5014258;28;20026;-51
2022/03/02 08:11:23;;;;;;;24.30;8.63;;;6.60;99.90;;;;;;5014465;28;20026;-53
2022/03/02 08:13:49;;;;;;;21.77;10.10;;;6.50;99.90;;;;;;5013993;28;20053;-47
2022/03/02 08:16:15;;;;;;;17.02;8.23;;;6.30;99.90;;;;;;5014838;28;20076;-47
2022/03/02 08:18:41;;;;;;;20.52;9.13;;;6.60;99.90;;;;;;5013844;28;20025;-48
2022/03/02 08:21:08;;;;;;;17.27;9.63;;;6.60;99.90;;;;;;5015145;28;20022;-47
2022/03/02 08:26:58;;;;;;;18.33;7.80;;;6.50;99.90;;;;;;5015412;28;20053;-48
2022/03/02 08:29:27;;;;;;;19.35;8.60;;;6.30;99.90;;;;;;5014645;28;20026;-47
2022/03/02 08:31:58;;;;;;;30.55;9.27;;;6.30;99.90;;;;;;5013759;28;20045;-47
2022/03/02 08:34:24;;;;;;;17.58;7.60;;;6.40;99.90;;;;;;5014371;28;20072;-47
2022/03/02 08:36:50;;;;;;;14.35;7.70;;;6.30;99.90;;;;;;5013537;28;20022;-49
2022/03/02 08:39:15;;;;;;;14.38;7.93;;;6.50;99.90;;;;;;5013929;28;20025;-47
2022/03/02 08:41:41;;;;;;;15.27;8.10;;;6.80;99.90;;;;;;5013543;28;20018;-47
2022/03/02 08:44:08;;;;;;;24.38;8.32;;;6.90;99.90;;;;;;5014789;28;20050;-48
2022/03/02 08:46:34;;;;;;;17.08;8.13;;;7.20;99.90;;;;;;5013380;28;20030;-49
2022/03/02 08:49:00;;;;;;;24.10;9.68;;;7.40;99.90;;;;;;5013520;28;20030;-50
2022/03/02 08:51:26;;;;;;;21.10;8.02;;;7.40;99.90;;;;;;5015281;28;20022;-54
2022/03/02 08:53:59;;;;;;;22.42;8.23;;;7.60;99.90;;;;;;5013417;28;20049;-53
2022/03/02 08:56:26;;;;;;;20.85;8.13;;;7.70;99.90;;;;;;5014818;28;20029;-48
2022/03/02 08:58:54;;;;;;;16.60;7.50;;;7.90;99.90;;;;;;5012821;28;20034;-48
2022/03/02 09:01:20;;;;;;;20.65;8.65;;;8.10;99.90;;;;;;5013191;28;20029;-48
2022/03/02 09:03:48;;;;;;;18.60;7.78;;;8.20;99.90;;;;;;5014435;28;20049;-51
2022/03/02 09:06:27;;;;;;;14.40;8.43;;;8.70;99.90;;;;;;5014360;28;20018;-50
2022/03/02 09:08:55;;;;;;;16.48;8.35;;;9.70;99.90;;;;;;5014483;28;20056;-48
2022/03/02 09:11:21;;;;;;;20.60;7.95;;;11.00;99.90;;;;;;5014250;28;20105;-48
2022/03/02 09:13:49;;;;;;;15.25;7.53;;;13.10;99.90;;;;;;5013470;28;20029;-48
2022/03/02 09:16:16;;;;;;;17.15;8.35;;;13.30;97.30;;;;;;5013088;28;20025;-47
2022/03/02 09:18:41;;;;;;;14.77;8.13;;;13.10;94.20;;;;;;5012933;28;20092;-52
2022/03/02 09:21:08;;;;;;;16.80;8.77;;;13.00;94.30;;;;;;5012919;28;20021;-48
2022/03/02 09:23:40;;;;;;;17.75;7.63;;;14.10;93.90;;;;;;5012868;28;20091;-48
2022/03/02 09:26:12;;;;;;;12.82;7.25;;;15.60;92.40;;;;;;5012872;28;20045;-48
2022/03/02 09:28:44;;;;;;;15.70;8.40;;;16.20;87.10;;;;;;5014406;28;20089;-50
2022/03/02 09:31:14;;;;;;;15.05;8.63;;;16.70;80.90;;;;;;5013155;28;20037;-48
2022/03/02 09:33:39;;;;;;;13.45;8.73;;;17.90;77.60;;;;;;5012799;28;20048;-48
2022/03/02 09:36:07;;;;;;;16.05;8.30;;;18.40;71.70;;;;;;5013967;28;20045;-47
2022/03/02 09:38:34;;;;;;;13.85;8.57;;;19.70;68.90;;;;;;5013929;28;20057;-49
2022/03/02 09:41:06;;;;;;;11.05;8.07;;;20.10;67.90;;;;;;5013013;28;20025;-51
2022/03/02 09:43:33;;;;;;;11.82;8.63;;;20.70;62.50;;;;;;5013945;28;20044;-49
2022/03/02 09:46:04;;;;;;;17.63;9.23;;;21.50;63.60;;;;;;5013722;28;20105;-48
2022/03/02 09:48:32;;;;;;;17.43;9.83;;;22.70;59.70;;;;;;5014405;28;20037;-47
2022/03/02 09:51:01;;;;;;;12.38;7.78;;;21.80;56.40;;;;;;5012756;28;20319;-48
2022/03/02 09:53:29;;;;;;;13.50;7.50;;;21.20;57.00;;;;;;5012449;28;20033;-49
2022/03/02 09:55:56;;;;;;;16.42;8.32;;;20.40;58.40;;;;;;5013648;28;20026;-50
2022/03/02 09:58:24;;;;;;;13.80;8.57;;;21.00;57.50;;;;;;5013847;28;20101;-49
2022/03/02 10:00:54;;;;;;;14.85;8.88;;;20.30;56.00;;;;;;5013577;28;20086;-48
2022/03/02 10:03:23;;;;;;;13.88;8.52;;;19.40;58.10;;;;;;5013605;28;20026;-49
2022/03/02 10:05:51;;;;;;;13.50;8.25;;;18.40;60.20;;;;;;5013500;28;20073;-51
2022/03/02 10:08:23;;;;;;;10.50;7.88;;;17.90;63.30;;;;;;5012562;28;20034;-51
2022/03/02 10:10:49;;;;;;;;;;;18.40;63.10;;;;;;5013055;28;20026;-53
2022/03/02 10:13:16;;;;;;;13.10;8.15;;;18.40;60.00;;;;;;5016446;28;19996;-52
2022/03/02 10:15:43;;;;;;;12.32;7.47;;;17.90;62.20;;;;;;5016328;28;20030;-53
2022/03/02 10:18:11;;;;;;;10.30;6.53;;;16.70;56.40;;;;;;5017793;28;20034;-49
2022/03/02 10:20:42;;;;;;;13.05;7.18;;;15.50;58.00;;;;;;5017143;28;20037;-50
2022/03/02 10:23:08;;;;;;;9.90;6.20;;;14.70;59.20;;;;;;5016280;28;20025;-48
2022/03/02 10:26:00;;;;;;;12.73;8.27;;;14.10;59.80;;;;;;5015973;28;20022;-48
2022/03/02 10:28:27;;;;;;;;;;;13.60;60.90;;;;;;5007733;28;20050;-48
2022/03/02 10:31:22;;;;;;;10.70;5.63;;;13.20;59.70;;;;;;5016947;28;19928;-47
2022/03/02 10:34:00;;;;;;;9.60;5.72;;;12.70;58.80;;;;;;4976398;28;20034;-48
2022/03/02 10:36:29;;;;;;;6.95;4.68;;;12.20;60.70;;;;;;5015986;28;20033;-47
2022/03/02 10:38:58;;;;;;;9.30;5.70;;;12.10;61.40;;;;;;5017302;28;20040;-48
2022/03/02 10:41:29;;;;;;;7.10;4.55;;;11.70;61.00;;;;;;5017378;28;20032;-46
2022/03/02 10:44:06;;;;;;;9.50;4.65;;;11.40;61.90;;;;;;5016970;28;20072;-48
2022/03/02 10:46:33;;;;;;;13.45;5.10;;;11.20;63.80;;;;;;5017043;28;20388;-47
2022/03/02 10:49:20;;;;;;;8.77;5.10;;;11.40;63.90;;;;;;5015738;28;20028;-49
2022/03/02 10:51:47;;;;;;;8.60;4.20;;;10.90;62.90;;;;;;5016973;28;20018;-47
2022/03/02 10:54:18;;;;;;;9.45;4.57;;;10.30;63.80;;;;;;5016911;28;20037;-48
2022/03/02 10:56:44;;;;;;;9.35;4.95;;;10.00;63.70;;;;;;5015570;28;20518;-52
2022/03/02 10:59:17;;;;;;;9.40;5.30;;;9.60;66.00;;;;;;5015586;28;20041;-53
2022/03/02 11:01:44;;;;;;;10.05;4.95;;;9.60;66.80;;;;;;5015540;28;20026;-51
2022/03/02 11:04:11;;;;;;;9.57;5.25;;;9.60;65.70;;;;;;5015761;28;20177;-49
2022/03/02 11:06:38;;;;;;;8.77;5.53;;;9.70;67.10;;;;;;5015384;28;20117;-55
2022/03/02 11:09:04;;;;;;;8.85;5.18;;;9.60;67.70;;;;;;5015303;28;20441;-51
2022/03/02 11:11:35;;;;;;;10.90;5.28;;;9.50;68.30;;;;;;5016461;28;20045;-48
2022/03/02 11:14:01;;;;;;;7.97;4.77;;;9.40;68.90;;;;;;5016612;28;20018;-49
2022/03/02 11:16:28;;;;;;;8.07;5.03;;;9.40;70.90;;;;;;5016589;28;20275;-48
2022/03/02 11:18:53;;;;;;;13.65;5.70;;;9.40;70.70;;;;;;5016513;28;20034;-48
2022/03/02 11:21:24;;;;;;;13.73;5.80;;;9.30;70.70;;;;;;5016603;28;20022;-51
2022/03/02 11:24:00;;;;;;;11.23;6.00;;;9.20;70.80;;;;;;5016002;28;20092;-47
2022/03/02 11:26:28;;;;;;;10.07;5.10;;;9.30;69.90;;;;;;5016182;28;20034;-48
2022/03/02 11:29:06;;;;;;;10.15;5.40;;;9.40;71.20;;;;;;5015301;28;20037;-48
2022/03/02 11:31:43;;;;;;;11.82;5.00;;;9.30;71.80;;;;;;5015009;28;20509;-49
2022/03/02 11:34:10;;;;;;;9.38;4.63;;;9.70;78.30;;;;;;5015496;28;20026;-49
2022/03/02 11:36:37;;;;;;;8.07;5.20;;;9.60;70.10;;;;;;5016324;28;20026;-51
2022/03/02 11:39:05;;;;;;;9.95;5.00;;;9.40;70.00;;;;;;5016012;28;20026;-48
2022/03/02 11:41:34;;;;;;;10.25;5.25;;;9.30;71.00;;;;;;5015530;28;20022;-50
2022/03/02 11:44:02;;;;;;;15.85;5.05;;;9.10;71.00;;;;;;5015931;28;20021;-50
2022/03/02 11:46:27;;;;;;;11.07;5.72;;;8.90;71.80;;;;;;5014986;28;20073;-53
2022/03/02 11:48:53;;;;;;;11.88;5.70;;;9.00;72.40;;;;;;5014802;28;20069;-53
2022/03/02 11:51:23;;;;;;;9.00;5.35;;;9.00;73.80;;;;;;5014866;28;20026;-50
2022/03/02 11:53:58;;;;;;;13.48;5.85;;;9.00;71.60;;;;;;5014882;28;20096;-49
2022/03/02 11:56:26;;;;;;;8.10;5.05;;;8.70;69.60;;;;;;5015757;28;20057;-49
2022/03/02 11:59:12;;;;;;;12.90;5.68;;;8.50;71.30;;;;;;5014226;28;20029;-52
2022/03/02 12:01:43;;;;;;;10.32;4.78;;;8.60;69.40;;;;;;5015439;28;20038;-53
2022/03/02 12:04:11;;;;;;;11.63;4.93;;;8.60;71.50;;;;;;5015852;28;20026;-53
2022/03/02 12:06:40;;;;;;;23.63;7.72;;;8.70;74.10;;;;;;5014687;28;20036;-50
2022/03/02 12:09:06;;;;;;;12.07;5.35;;;8.70;70.00;;;;;;5015487;28;20026;-48
2022/03/02 12:11:34;;;;;;;11.40;5.47;;;8.70;71.30;;;;;;5015670;28;20084;-50
2022/03/02 12:14:08;;;;;;;12.65;5.20;;;8.80;70.60;;;;;;5014161;28;20026;-50
2022/03/02 12:16:49;;;;;;;10.25;5.38;;;8.80;72.00;;;;;;5013962;28;20022;-50
2022/03/02 12:19:23;;;;;;;7.85;4.78;;;8.90;70.60;;;;;;5015571;28;20030;-51
2022/03/02 12:21:51;;;;;;;9.73;5.72;;;8.80;71.00;;;;;;5014733;28;20018;-51
2022/03/02 12:24:29;;;;;;;12.73;5.70;;;8.80;71.70;;;;;;5014956;28;20030;-55
2022/03/02 12:27:10;;;;;;;8.95;5.38;;;8.80;72.70;;;;;;5013976;28;20034;-50
2022/03/02 12:29:38;;;;;;;11.43;6.05;;;8.90;72.80;;;;;;5015219;28;20075;-52
2022/03/02 12:32:26;;;;;;;9.23;5.25;;;9.00;75.00;;;;;;5015505;28;20037;-54
2022/03/02 12:34:51;;;;;;;9.55;5.20;;;9.00;71.80;;;;;;5014263;28;20076;-50
2022/03/02 12:37:19;;;;;;;8.90;4.68;;;9.00;72.50;;;;;;5013913;28;20026;-50
2022/03/02 12:39:45;;;;;;;12.48;5.53;;;9.10;73.00;;;;;;5013674;28;20045;-52
2022/03/02 12:42:12;;;;;;;12.10;6.10;;;9.00;74.40;;;;;;5013621;28;20026;-50
2022/03/02 12:44:44;;;;;;;9.40;5.22;;;9.20;75.20;;;;;;5015009;28;20072;-53
2022/03/02 12:47:12;;;;;;;9.55;4.88;;;9.30;75.20;;;;;;5014451;28;20072;-48
2022/03/02 12:49:40;;;;;;;10.98;5.47;;;9.30;72.90;;;;;;5013786;28;20026;-50
2022/03/02 12:52:07;;;;;;;10.32;5.75;;;9.20;71.10;;;;;;5013394;28;20032;-52
2022/03/02 12:54:35;;;;;;;7.88;4.50;;;9.20;69.10;;;;;;5013304;28;20026;-48